FMEE/RUN METAR and TAF weather

Enter ICAO airport designator
Station Type Date Time Source
FMEE METAR 2019/10/16 19:30 UTC NOAA

FMEE 161930Z AUTO 12011KT 9999 SCT084 22/18 Q1018 TEMPO 10015G25KT 4000 SHRA FEW025TCU BKN030


Station Type Date Time Source
FMEE Decoded METAR 2019/10/16 19:30 UTC NOAA

Saint-Denis / Gillot, Reunion (FMEE) 20-53S 055-31E 25M
Oct 16, 2019 - 03:30 PM EDT / 2019.10.16 1930 UTC
Wind: from the ESE (120 degrees) at 13 MPH (11 KT):0
Visibility: greater than 7 mile(s):0
Sky conditions: partly cloudy
Weather: Towering cumulus clouds observed
Temperature: 71 F (22 C)
Dew Point: 64 F (18 C)
Relative Humidity: 78%
Pressure (altimeter): 30.06 in. Hg (1018 hPa)
ob: FMEE 161930Z AUTO 12011KT 9999 SCT084 22/18 Q1018 TEMPO 10015G25KT 4000 SHRA FEW025TCU BKN030
cycle: 19

Station Type Date Time Source
FMEE TAF 2019/10/16 18:45 UTC NOAA

TAF FMEE 161700Z 1618/1724 11015KT 9999 SCT025 SCT050 PROB40
TEMPO

Example: see airport list